createdAt,value
2022-09-28T00:00:06.607Z,3.60
2022-09-28T00:02:40.185Z,3.63
2022-09-28T00:05:12.699Z,4.20
2022-09-28T00:07:46.943Z,3.50
2022-09-28T00:10:22.306Z,4.10
2022-09-28T00:12:55.562Z,4.17
2022-09-28T00:15:27.450Z,5.17
2022-09-28T00:17:58.118Z,5.30
2022-09-28T00:20:28.885Z,4.20
2022-09-28T00:23:02.154Z,5.70
2022-09-28T00:25:33.115Z,3.90
2022-09-28T00:28:05.208Z,4.10
2022-09-28T00:30:35.969Z,4.37
2022-09-28T00:33:07.047Z,4.37
2022-09-28T00:35:37.848Z,4.57
2022-09-28T00:38:11.214Z,4.83
2022-09-28T00:40:42.061Z,5.30
2022-09-28T00:43:21.344Z,5.20
2022-09-28T00:45:58.739Z,4.13
2022-09-28T00:48:32.729Z,4.43
2022-09-28T00:51:08.308Z,4.80
2022-09-28T00:53:44.441Z,4.43
2022-09-28T00:56:19.216Z,4.50
2022-09-28T00:58:54.870Z,5.10
2022-09-28T01:01:26.943Z,5.03
2022-09-28T01:03:57.639Z,4.87
2022-09-28T01:06:31.056Z,5.03
2022-09-28T01:09:07.708Z,4.60
2022-09-28T01:11:40.822Z,4.93
2022-09-28T01:14:14.551Z,4.87
2022-09-28T01:16:52.582Z,4.40
2022-09-28T01:19:55.538Z,4.60
2022-09-28T01:22:44.892Z,3.97
2022-09-28T01:25:34.264Z,3.67
2022-09-28T01:28:12.342Z,3.63
2022-09-28T01:30:50.175Z,3.40
2022-09-28T01:33:26.456Z,3.13
2022-09-28T01:36:02.635Z,2.90
2022-09-28T01:38:39.896Z,3.47
2022-09-28T01:41:11.848Z,2.80
2022-09-28T01:43:51.099Z,4.00
2022-09-28T01:46:27.785Z,3.23
2022-09-28T01:49:00.955Z,3.20
2022-09-28T01:51:37.958Z,2.70
2022-09-28T01:54:14.848Z,3.10
2022-09-28T01:56:52.040Z,3.37
2022-09-28T01:59:31.052Z,3.80
2022-09-28T02:02:07.174Z,3.10
2022-09-28T02:04:43.765Z,4.70
2022-09-28T02:07:19.154Z,4.07
2022-09-28T02:09:55.457Z,4.57
2022-09-28T02:12:32.343Z,4.87
2022-09-28T02:15:15.160Z,3.90
2022-09-28T02:17:48.825Z,4.80
2022-09-28T02:20:20.170Z,5.17
2022-09-28T02:22:54.358Z,4.27
2022-09-28T02:25:31.029Z,4.03
2022-09-28T02:28:04.714Z,4.30
2022-09-28T02:30:41.616Z,4.40
2022-09-28T02:33:15.691Z,5.03
2022-09-28T02:35:46.684Z,5.00
2022-09-28T02:38:18.507Z,4.93
2022-09-28T02:41:00.336Z,4.80
2022-09-28T02:43:41.527Z,6.00
2022-09-28T02:46:24.895Z,6.13
2022-09-28T02:49:21.484Z,7.20
2022-09-28T02:52:05.878Z,5.63
2022-09-28T02:55:01.514Z,7.33
2022-09-28T02:57:42.146Z,7.30
2022-09-28T03:00:17.734Z,6.33
2022-09-28T03:02:59.543Z,8.50
2022-09-28T03:05:39.877Z,6.87
2022-09-28T03:08:16.752Z,8.10
2022-09-28T03:10:51.919Z,6.60
2022-09-28T03:13:25.608Z,8.20
2022-09-28T03:16:10.515Z,9.00
2022-09-28T03:18:44.776Z,9.37
2022-09-28T03:21:16.211Z,8.80
2022-09-28T03:23:47.917Z,10.77
2022-09-28T03:26:19.897Z,8.53
2022-09-28T03:28:50.803Z,9.60
2022-09-28T03:31:21.581Z,10.20
2022-09-28T03:33:55.724Z,11.00
2022-09-28T03:36:26.864Z,11.33
2022-09-28T03:38:57.822Z,11.90
2022-09-28T03:41:29.248Z,9.80
2022-09-28T03:44:00.384Z,12.27
2022-09-28T03:46:31.203Z,14.10
2022-09-28T03:49:04.581Z,11.87
2022-09-28T03:51:35.352Z,14.00
2022-09-28T03:54:06.422Z,13.97
2022-09-28T03:56:37.119Z,14.83
2022-09-28T03:59:08.010Z,13.80
2022-09-28T04:01:38.900Z,14.30
2022-09-28T04:04:14.300Z,15.23
2022-09-28T04:06:47.413Z,14.17
2022-09-28T04:09:18.946Z,14.63
2022-09-28T04:12:03.349Z,14.10
2022-09-28T04:14:35.237Z,13.70
2022-09-28T04:17:09.483Z,13.60
2022-09-28T04:19:43.220Z,15.37
2022-09-28T04:22:14.345Z,12.57
2022-09-28T04:24:46.561Z,12.60
2022-09-28T04:27:29.798Z,12.87
2022-09-28T04:30:01.555Z,11.43
2022-09-28T04:32:32.467Z,10.90
2022-09-28T04:35:07.062Z,11.80
2022-09-28T04:37:38.352Z,11.23
2022-09-28T04:40:10.312Z,11.43
2022-09-28T04:42:41.423Z,10.80
2022-09-28T04:45:13.426Z,10.83
2022-09-28T04:47:44.214Z,12.30
2022-09-28T04:50:17.941Z,12.00
2022-09-28T04:52:51.683Z,11.70
2022-09-28T04:55:22.653Z,10.73
2022-09-28T04:57:56.554Z,11.17
2022-09-28T05:00:27.375Z,11.90
2022-09-28T05:03:00.526Z,12.60
2022-09-28T05:05:36.402Z,12.07
2022-09-28T05:08:07.179Z,12.23
2022-09-28T05:10:40.483Z,15.70
2022-09-28T05:13:11.618Z,15.20
2022-09-28T05:15:44.024Z,14.20
2022-09-28T05:18:17.410Z,15.50
2022-09-28T05:20:50.775Z,17.43
2022-09-28T05:23:21.600Z,15.43
2022-09-28T05:25:55.716Z,18.50
2022-09-28T05:28:29.693Z,18.07
2022-09-28T05:31:02.795Z,18.73
2022-09-28T05:33:34.650Z,20.20
2022-09-28T05:36:12.543Z,16.80
2022-09-28T05:38:43.363Z,19.40
2022-09-28T05:41:18.239Z,18.97
2022-09-28T05:43:49.186Z,20.20
2022-09-28T05:46:21.834Z,21.13
2022-09-28T05:48:54.261Z,19.90
2022-09-28T05:51:27.721Z,20.37
2022-09-28T05:54:03.158Z,18.03
2022-09-28T05:56:36.609Z,19.60
2022-09-28T05:59:08.000Z,18.43
2022-09-28T06:01:38.981Z,21.13
2022-09-28T06:04:09.940Z,17.37
2022-09-28T06:06:43.391Z,19.50
2022-09-28T06:09:14.470Z,18.50
2022-09-28T06:11:48.351Z,18.57
2022-09-28T06:14:19.191Z,18.40
2022-09-28T06:16:50.438Z,17.13
2022-09-28T06:19:21.532Z,17.40
2022-09-28T06:21:55.064Z,19.57
2022-09-28T06:24:25.869Z,18.17
2022-09-28T06:26:56.731Z,18.60
2022-09-28T06:29:27.478Z,17.20
2022-09-28T06:31:58.239Z,17.13
2022-09-28T06:34:29.975Z,19.27
2022-09-28T06:37:04.739Z,15.80
2022-09-28T06:39:35.494Z,14.67
2022-09-28T06:42:06.572Z,17.10
2022-09-28T06:44:37.600Z,14.70
2022-09-28T06:47:08.547Z,16.70
2022-09-28T06:49:41.289Z,16.60
2022-09-28T06:52:14.842Z,16.27
2022-09-28T06:54:48.629Z,17.33
2022-09-28T06:57:19.479Z,17.17
2022-09-28T06:59:50.201Z,17.53
2022-09-28T07:02:22.777Z,17.50
2022-09-28T07:04:53.534Z,20.70
2022-09-28T07:07:27.137Z,15.53
2022-09-28T07:09:58.244Z,18.93
2022-09-28T07:12:32.295Z,18.00
2022-09-28T07:15:03.908Z,19.47
2022-09-28T07:17:41.284Z,18.03
2022-09-28T07:20:19.763Z,17.70
2022-09-28T07:22:56.415Z,20.17
2022-09-28T07:25:29.799Z,17.63
2022-09-28T07:28:02.497Z,21.53
2022-09-28T07:30:35.976Z,19.67
2022-09-28T07:33:10.690Z,21.17
2022-09-28T07:35:41.984Z,20.27
2022-09-28T07:38:15.530Z,22.67
2022-09-28T07:40:58.922Z,25.00
2022-09-28T07:43:33.334Z,23.37
2022-09-28T07:46:05.985Z,22.37
2022-09-28T07:48:36.900Z,20.77
2022-09-28T07:51:11.548Z,25.03
2022-09-28T07:53:45.870Z,21.87
2022-09-28T07:56:20.403Z,23.13
2022-09-28T07:58:51.748Z,24.30
2022-09-28T08:01:32.080Z,24.77
2022-09-28T08:04:02.993Z,21.87
2022-09-28T08:06:33.994Z,24.27
2022-09-28T08:09:07.348Z,20.70
2022-09-28T08:11:38.723Z,23.00
2022-09-28T08:14:11.034Z,22.40
2022-09-28T08:16:43.735Z,23.00
2022-09-28T08:19:14.755Z,20.80
2022-09-28T08:21:45.603Z,21.17
2022-09-28T08:24:20.656Z,21.10
2022-09-28T08:26:51.431Z,23.70
2022-09-28T08:29:22.346Z,22.70
2022-09-28T08:31:53.293Z,23.10
2022-09-28T08:34:24.086Z,25.10
2022-09-28T08:36:55.464Z,22.63
2022-09-28T08:39:29.466Z,23.50
2022-09-28T08:42:19.431Z,22.17
2022-09-28T08:44:54.610Z,25.23
2022-09-28T08:47:41.120Z,25.43
2022-09-28T08:50:19.335Z,25.23
2022-09-28T08:52:57.555Z,23.10
2022-09-28T08:55:34.588Z,23.70
2022-09-28T08:58:16.367Z,25.87
2022-09-28T09:00:50.446Z,25.67
2022-09-28T09:03:26.546Z,20.70
2022-09-28T09:06:06.265Z,22.60
2022-09-28T09:08:50.262Z,20.30
2022-09-28T09:11:35.493Z,22.00
2022-09-28T09:14:24.496Z,21.83
2022-09-28T09:17:03.272Z,20.27
2022-09-28T09:19:43.347Z,18.27
2022-09-28T09:22:20.382Z,22.33
2022-09-28T09:24:53.340Z,22.00
2022-09-28T09:27:53.596Z,20.03
2022-09-28T09:30:29.834Z,17.73
2022-09-28T09:33:24.130Z,17.43
2022-09-28T09:36:14.503Z,19.40
2022-09-28T09:38:58.704Z,18.93
2022-09-28T09:41:43.924Z,20.20
2022-09-28T09:44:44.950Z,19.07
2022-09-28T09:47:20.608Z,20.37
2022-09-28T09:49:58.403Z,19.20
2022-09-28T09:52:38.776Z,20.53
2022-09-28T09:55:23.363Z,19.00
2022-09-28T09:58:02.345Z,18.60
2022-09-28T10:00:38.058Z,16.37
2022-09-28T10:03:09.508Z,15.53
2022-09-28T10:05:41.734Z,15.00
2022-09-28T10:08:20.733Z,14.00
2022-09-28T10:10:54.309Z,14.00
2022-09-28T10:13:25.500Z,12.23
2022-09-28T10:15:59.907Z,13.87
2022-09-28T10:18:31.327Z,13.13
2022-09-28T10:21:02.341Z,13.20
2022-09-28T10:23:37.732Z,13.40
2022-09-28T10:26:13.563Z,11.83
2022-09-28T10:28:51.336Z,9.83
2022-09-28T10:31:43.588Z,10.70
2022-09-28T10:34:18.279Z,9.90
2022-09-28T10:36:58.837Z,8.97
2022-09-28T10:39:34.400Z,8.13
2022-09-28T10:42:10.742Z,7.10
2022-09-28T10:44:54.287Z,6.83
2022-09-28T10:47:31.336Z,6.60
2022-09-28T10:50:03.021Z,8.00
2022-09-28T10:52:37.068Z,9.23
2022-09-28T10:55:30.616Z,7.73
2022-09-28T10:58:02.601Z,7.90
2022-09-28T11:00:39.751Z,7.03
2022-09-28T11:03:21.749Z,6.67
2022-09-28T11:06:04.366Z,4.77
2022-09-28T11:08:41.621Z,5.30
2022-09-28T11:11:14.634Z,5.47
2022-09-28T11:13:50.650Z,5.17
2022-09-28T11:16:27.505Z,4.70
2022-09-28T11:19:06.957Z,5.07
2022-09-28T11:21:46.012Z,4.90
2022-09-28T11:24:27.277Z,4.30
2022-09-28T11:27:00.772Z,3.93
2022-09-28T11:29:40.448Z,4.20
2022-09-28T11:32:15.969Z,4.17
2022-09-28T11:34:59.670Z,4.50
2022-09-28T11:38:02.030Z,4.10
2022-09-28T11:40:54.543Z,5.07
2022-09-28T11:43:41.511Z,6.80
2022-09-28T11:46:28.182Z,7.97
2022-09-28T11:49:04.279Z,8.40
2022-09-28T11:51:44.290Z,7.50
2022-09-28T11:54:22.213Z,6.90
2022-09-28T11:56:54.339Z,7.63
2022-09-28T11:59:33.150Z,6.83
2022-09-28T12:02:14.976Z,6.87
2022-09-28T12:04:49.809Z,7.33
2022-09-28T12:07:28.888Z,8.60
2022-09-28T12:10:03.803Z,7.97
2022-09-28T12:12:41.328Z,7.47
2022-09-28T12:15:20.891Z,9.70
2022-09-28T12:17:55.580Z,9.17
2022-09-28T12:20:32.176Z,9.17
2022-09-28T12:23:10.552Z,8.40
2022-09-28T12:25:46.290Z,8.30
2022-09-28T12:28:27.662Z,8.60
2022-09-28T12:31:02.975Z,7.40
2022-09-28T12:33:33.808Z,8.50
2022-09-28T12:36:17.250Z,7.47
2022-09-28T12:39:31.007Z,7.73
2022-09-28T12:42:25.502Z,8.20
2022-09-28T12:45:17.433Z,7.90
2022-09-28T12:48:08.673Z,7.60
2022-09-28T12:50:57.113Z,8.70
2022-09-28T12:53:46.759Z,6.33
2022-09-28T12:56:32.196Z,7.00
2022-09-28T12:59:20.187Z,6.70
2022-09-28T13:02:30.072Z,6.97
2022-09-28T13:05:14.983Z,7.50
2022-09-28T13:07:53.931Z,6.57
2022-09-28T13:10:33.271Z,6.10
2022-09-28T13:13:29.196Z,5.93
2022-09-28T13:16:08.108Z,6.70
2022-09-28T13:18:48.501Z,8.33
2022-09-28T13:21:29.689Z,6.53
2022-09-28T13:24:27.819Z,7.13
2022-09-28T13:27:01.172Z,7.27
2022-09-28T13:32:12.657Z,7.33
2022-09-28T13:34:43.776Z,7.20
2022-09-28T13:37:25.367Z,6.60
2022-09-28T13:39:58.605Z,6.47
2022-09-28T13:43:00.655Z,6.53
2022-09-28T13:45:56.811Z,7.30
2022-09-28T13:48:44.450Z,6.33
2022-09-28T13:51:42.624Z,6.77
2022-09-28T13:54:50.349Z,7.83
2022-09-28T13:57:28.683Z,7.13
2022-09-28T14:00:11.657Z,7.60
2022-09-28T14:02:56.979Z,5.90
2022-09-28T14:05:49.265Z,6.07
2022-09-28T14:08:36.321Z,6.50
2022-09-28T14:11:43.775Z,6.00
2022-09-28T14:14:48.966Z,6.23
2022-09-28T14:17:50.454Z,6.77
2022-09-28T14:20:27.936Z,6.80
2022-09-28T14:23:20.997Z,6.60
2022-09-28T14:26:24.682Z,6.17
2022-09-28T14:29:10.548Z,5.70
2022-09-28T14:31:45.410Z,5.13
2022-09-28T14:34:48.800Z,5.20
2022-09-28T14:37:36.136Z,5.20
2022-09-28T14:40:31.642Z,5.17
2022-09-28T14:43:24.798Z,5.20
2022-09-28T14:46:31.774Z,4.13
2022-09-28T14:49:04.382Z,5.27
2022-09-28T14:52:06.297Z,4.87
2022-09-28T14:54:55.055Z,4.63
2022-09-28T14:57:30.368Z,5.13
2022-09-28T15:00:02.289Z,3.90
2022-09-28T15:02:36.086Z,4.93
2022-09-28T15:05:17.191Z,4.17
2022-09-28T15:07:53.964Z,3.87
2022-09-28T15:10:33.835Z,4.53
2022-09-28T15:13:07.062Z,4.57
2022-09-28T15:15:40.894Z,5.23
2022-09-28T15:18:33.803Z,4.77
2022-09-28T15:21:05.164Z,5.83
2022-09-28T15:23:44.488Z,5.80
2022-09-28T15:26:27.449Z,4.37
2022-09-28T15:28:58.677Z,5.30
2022-09-28T15:31:31.252Z,4.90
2022-09-28T15:34:14.706Z,4.40
2022-09-28T15:36:47.595Z,5.17
2022-09-28T15:39:24.032Z,5.40
2022-09-28T15:41:57.989Z,4.93
2022-09-28T15:44:33.891Z,3.87
2022-09-28T15:47:13.941Z,3.60
2022-09-28T15:49:57.560Z,3.27
2022-09-28T15:52:36.117Z,3.30
2022-09-28T15:55:23.680Z,3.47
2022-09-28T15:58:10.844Z,3.70
2022-09-28T16:00:42.413Z,3.23
2022-09-28T16:03:26.685Z,3.70
2022-09-28T16:06:11.464Z,9.53
2022-09-28T16:08:44.196Z,18.33
2022-09-28T16:11:26.231Z,12.97
2022-09-28T16:14:06.082Z,8.00
2022-09-28T16:16:43.323Z,5.27
2022-09-28T16:19:25.333Z,4.30
2022-09-28T16:22:00.822Z,4.50
2022-09-28T16:24:37.329Z,4.77
2022-09-28T16:27:25.933Z,3.30
2022-09-28T16:30:21.780Z,3.87
2022-09-28T16:32:56.469Z,5.83
2022-09-28T16:35:30.981Z,6.43
2022-09-28T16:38:14.394Z,6.50
2022-09-28T16:40:49.537Z,4.40
2022-09-28T16:43:27.259Z,4.43
2022-09-28T16:45:59.384Z,3.30
2022-09-28T16:48:31.964Z,3.50
2022-09-28T16:51:03.217Z,3.17
2022-09-28T16:53:46.557Z,2.90
2022-09-28T16:56:18.536Z,2.80
2022-09-28T16:58:52.293Z,3.03
2022-09-28T17:01:24.283Z,2.33
2022-09-28T17:03:55.462Z,2.97
2022-09-28T17:06:27.415Z,3.20
2022-09-28T17:09:00.180Z,2.83
2022-09-28T17:11:31.125Z,2.80
2022-09-28T17:14:06.521Z,3.10
2022-09-28T17:19:33.268Z,4.30
2022-09-28T17:22:04.436Z,3.67
2022-09-28T17:24:35.780Z,3.30
2022-09-28T17:27:11.578Z,3.13
2022-09-28T17:29:44.883Z,3.10
2022-09-28T17:32:21.306Z,2.37
2022-09-28T17:35:06.463Z,2.87
2022-09-28T17:37:43.364Z,1.93
2022-09-28T17:40:20.693Z,1.83
2022-09-28T17:42:55.191Z,2.10
2022-09-28T17:45:31.673Z,3.00
2022-09-28T17:48:03.468Z,2.70
2022-09-28T17:50:36.061Z,3.20
2022-09-28T17:53:07.341Z,2.93
2022-09-28T17:55:40.229Z,2.60
2022-09-28T17:58:21.575Z,2.60
2022-09-28T18:00:55.366Z,3.53
2022-09-28T18:03:27.897Z,4.33
2022-09-28T18:06:04.954Z,4.23
2022-09-28T18:08:36.459Z,3.90
2022-09-28T18:11:07.710Z,3.97
2022-09-28T18:13:42.359Z,4.10
2022-09-28T18:16:17.503Z,3.43
2022-09-28T18:18:50.656Z,3.50
2022-09-28T18:21:21.545Z,3.67
2022-09-28T18:23:52.797Z,3.03
2022-09-28T18:26:23.743Z,4.37
2022-09-28T18:28:57.671Z,4.70
2022-09-28T18:31:34.190Z,5.17
2022-09-28T18:34:05.826Z,4.73
2022-09-28T18:36:37.915Z,6.27
2022-09-28T18:39:08.733Z,5.87
2022-09-28T18:41:39.639Z,5.60
2022-09-28T18:44:10.589Z,5.20
2022-09-28T18:46:45.121Z,5.73
2022-09-28T18:49:16.297Z,5.70
2022-09-28T18:51:50.049Z,8.00
2022-09-28T18:54:20.947Z,7.30
2022-09-28T18:56:52.205Z,6.73
2022-09-28T18:59:23.251Z,5.60
2022-09-28T19:02:01.789Z,6.17
2022-09-28T19:04:35.121Z,4.67
2022-09-28T19:07:09.101Z,4.73
2022-09-28T19:09:44.002Z,4.80
2022-09-28T19:12:17.591Z,5.53
2022-09-28T19:14:48.477Z,4.60
2022-09-28T19:17:22.226Z,4.43
2022-09-28T19:19:54.412Z,4.33
2022-09-28T19:22:28.898Z,4.90
2022-09-28T19:24:59.992Z,3.87
2022-09-28T19:27:33.598Z,4.03
2022-09-28T19:30:04.484Z,3.90
2022-09-28T19:32:37.965Z,3.93
2022-09-28T19:35:09.950Z,3.47
2022-09-28T19:37:41.038Z,2.70
2022-09-28T19:40:12.652Z,3.40
2022-09-28T19:42:44.488Z,2.87
2022-09-28T19:45:15.632Z,3.33
2022-09-28T19:47:55.145Z,3.43
2022-09-28T19:50:29.572Z,2.70
2022-09-28T19:53:02.030Z,3.50
2022-09-28T19:55:39.194Z,4.20
2022-09-28T19:58:12.561Z,3.87
2022-09-28T20:00:53.064Z,3.63
2022-09-28T20:03:26.677Z,4.70
2022-09-28T20:06:00.120Z,3.77
2022-09-28T20:08:34.036Z,3.50
2022-09-28T20:11:06.050Z,3.70
2022-09-28T20:13:39.535Z,3.37
2022-09-28T20:16:12.300Z,3.87
2022-09-28T20:18:51.967Z,4.00
2022-09-28T20:21:26.793Z,4.80
2022-09-28T20:23:58.202Z,5.53
2022-09-28T20:26:29.995Z,4.37
2022-09-28T20:29:00.807Z,4.63
2022-09-28T20:31:31.802Z,3.50
2022-09-28T20:34:05.507Z,2.90
2022-09-28T20:36:37.162Z,3.27
2022-09-28T20:39:07.943Z,3.90
2022-09-28T20:41:39.880Z,3.13
2022-09-28T20:44:12.429Z,2.60
2022-09-28T20:46:44.726Z,2.70
2022-09-28T20:49:20.117Z,2.83
2022-09-28T20:51:51.060Z,2.80
2022-09-28T20:54:23.047Z,2.90
2022-09-28T20:56:53.888Z,3.63
2022-09-28T20:59:26.512Z,3.50
2022-09-28T21:01:57.616Z,3.30
2022-09-28T21:04:31.430Z,3.33
2022-09-28T21:07:02.523Z,3.30
2022-09-28T21:09:33.302Z,4.27
2022-09-28T21:12:07.439Z,4.40
2022-09-28T21:14:38.246Z,5.20
2022-09-28T21:17:09.277Z,5.13
2022-09-28T21:19:42.884Z,4.90
2022-09-28T21:22:14.197Z,5.30
2022-09-28T21:24:44.962Z,6.03
2022-09-28T21:27:15.868Z,4.93
2022-09-28T21:29:46.644Z,6.10
2022-09-28T21:32:17.407Z,5.53
2022-09-28T21:34:51.025Z,5.87
2022-09-28T21:37:22.991Z,5.70
2022-09-28T21:39:54.052Z,5.27
2022-09-28T21:42:28.838Z,5.07
2022-09-28T21:45:00.864Z,4.37
2022-09-28T21:47:34.993Z,4.10
2022-09-28T21:50:09.493Z,4.33
2022-09-28T21:52:40.197Z,4.97
2022-09-28T21:55:13.549Z,4.10
2022-09-28T21:57:44.294Z,4.67
2022-09-28T22:00:16.469Z,4.10
2022-09-28T22:02:48.244Z,4.70
2022-09-28T22:05:22.163Z,4.13
2022-09-28T22:07:54.697Z,5.00
2022-09-28T22:10:26.461Z,4.63
2022-09-28T22:13:02.482Z,4.80
2022-09-28T22:15:35.713Z,5.63
2022-09-28T22:18:09.232Z,5.73
2022-09-28T22:20:44.212Z,5.47
2022-09-28T22:23:15.419Z,5.90
2022-09-28T22:25:46.469Z,5.80
2022-09-28T22:28:17.375Z,6.47
2022-09-28T22:30:48.123Z,4.57
2022-09-28T22:33:19.146Z,4.80
2022-09-28T22:35:52.926Z,4.97
2022-09-28T22:38:25.454Z,5.40
2022-09-28T22:40:58.532Z,4.80
2022-09-28T22:43:30.930Z,4.70
2022-09-28T22:46:06.101Z,4.70
2022-09-28T22:48:39.977Z,5.97
2022-09-28T22:51:14.499Z,6.07
2022-09-28T22:53:45.773Z,5.77
2022-09-28T22:56:18.937Z,6.27
2022-09-28T22:58:50.292Z,8.20
2022-09-28T23:01:23.375Z,7.10
2022-09-28T23:03:55.639Z,8.10
2022-09-28T23:06:30.968Z,6.83
2022-09-28T23:09:02.216Z,6.87
2022-09-28T23:11:33.323Z,8.97
2022-09-28T23:14:04.134Z,8.30
2022-09-28T23:16:35.000Z,9.03
2022-09-28T23:19:07.612Z,8.60
2022-09-28T23:21:41.204Z,10.63
2022-09-28T23:24:13.608Z,8.27
2022-09-28T23:26:44.709Z,7.63
2022-09-28T23:29:15.450Z,8.87
2022-09-28T23:31:48.734Z,7.63
2022-09-28T23:34:21.714Z,8.00
2022-09-28T23:36:57.363Z,5.80
2022-09-28T23:39:31.183Z,7.20
2022-09-28T23:42:04.950Z,7.30
2022-09-28T23:44:35.910Z,6.73
2022-09-28T23:47:07.767Z,6.77
2022-09-28T23:49:38.678Z,6.83
2022-09-28T23:52:12.086Z,6.30
2022-09-28T23:54:43.282Z,5.90
2022-09-28T23:57:14.199Z,6.87
2022-09-28T23:59:45.065Z,5.83
